Time;durP1;ratioP1;P1;durP2;ratioP2;P2;SDS_P1;SDS_P2;PMS_P1;PMS_P2;Temp;Humidity;BMP_temperature;BMP_pressure;BME280_temperature;BME280_humidity;BME280_pressure;Samples;Min_cycle;Max_cycle;Signal;HPM_P1;HPM_P2
2022/02/23 00:00:43;;;;;;;;;;;;;;;;;;5090638;28;736;-73
2022/02/23 00:03:11;;;;;;;;;;;;;;;;;;5090505;28;1095;-73
2022/02/23 00:05:37;;;;;;;;;;;;;;;;;;5090551;28;1329;-73
2022/02/23 00:08:04;;;;;;;;;;;;;;;;;;5090546;28;1130;-73
2022/02/23 00:10:30;;;;;;;;;;;;;;;;;;5090250;28;849;-73
2022/02/23 00:12:56;;;;;;;;;;;;;;;;;;5090320;28;1079;-73
2022/02/23 00:15:23;;;;;;;;;;;;;;;;;;5090363;28;1392;-73
2022/02/23 00:17:49;;;;;;;;;;;;;;;;;;5090453;28;1965;-73
2022/02/23 00:20:17;;;;;;;;;;;;;;;;;;5090176;28;718;-73
2022/02/23 00:22:43;;;;;;;;;;;;;;;;;;5091319;28;935;-73
2022/02/23 00:25:09;;;;;;;;;;;;;;;;;;5094356;28;1335;-73
2022/02/23 00:27:36;;;;;;;;;;;;;;;;;;5094373;28;806;-73
2022/02/23 00:30:02;;;;;;;;;;;;;;;;;;5094038;28;773;-72
2022/02/23 00:32:30;;;;;;;;;;;;;;;;;;5094029;28;1071;-73
2022/02/23 00:34:56;;;;;;;;;;;;;;;;;;5094468;28;1368;-73
2022/02/23 00:37:24;;;;;;;;;;;;;;;;;;5094482;28;1082;-73
2022/02/23 00:39:50;;;;;;;;;;;;;;;;;;5093701;28;1917;-71
2022/02/23 00:42:16;;;;;;;;;;;;;;;;;;5094207;28;896;-72
2022/02/23 00:44:42;;;;;;;;;;;;;;;;;;5094083;28;1316;-71
2022/02/23 00:47:10;;;;;;;;;;;;;;;;;;5094075;28;1058;-72
2022/02/23 00:49:36;;;;;;;;;;;;;;;;;;5093663;28;916;-72
2022/02/23 00:52:05;;;;;;;;;;;;;;;;;;5094983;28;1103;-72
2022/02/23 00:54:33;;;;;;;;;;;;;;;;;;5093737;28;1336;-72
2022/02/23 00:56:59;;;;;;;;;;;;;;;;;;5093794;28;1078;-72
2022/02/23 00:59:25;;;;;;;;;;;;;;;;;;5093847;28;1910;-72
2022/02/23 01:01:51;;;;;;;;;;;;;;;;;;5093526;28;1140;-72
2022/02/23 01:04:18;;;;;;;;;;;;;;;;;;5093776;28;1407;-72
2022/02/23 01:06:44;;;;;;;;;;;;;;;;;;5093285;28;1093;-71
2022/02/23 01:09:10;;;;;;;;;;;;;;;;;;5093800;28;742;-72
2022/02/23 01:11:40;;;;;;;;;;;;;;;;;;5093479;28;1169;-72
2022/02/23 01:14:06;;;;;;;;;;;;;;;;;;5093485;28;1381;-72
2022/02/23 01:16:32;;;;;;;;;;;;;;;;;;5093419;28;866;-72
2022/02/23 01:18:58;;;;;;;;;;;;;;;;;;5093479;28;1917;-72
2022/02/23 01:21:24;;;;;;;;;;;;;;;;;;5074953;28;1275;-72
2022/02/23 01:23:51;;;;;;;;;;;;;;;;;;5093218;28;1396;-72
2022/02/23 01:26:17;;;;;;;;;;;;;;;;;;5093142;28;821;-72
2022/02/23 01:28:44;;;;;;;;;;;;;;;;;;5093535;28;810;-72
2022/02/23 01:31:11;;;;;;;;;;;;;;;;;;5092922;28;896;-72
2022/02/23 01:33:37;;;;;;;;;;;;;;;;;;5074632;28;1213;-72
2022/02/23 01:36:03;;;;;;;;;;;;;;;;;;5074816;28;1313;-72
2022/02/23 01:38:29;;;;;;;;;;;;;;;;;;5092996;28;1977;-72
2022/02/23 01:40:56;;;;;;;;;;;;;;;;;;5092934;28;806;-72
2022/02/23 01:43:22;;;;;;;;;;;;;;;;;;5093042;28;1380;-72
2022/02/23 01:45:49;;;;;;;;;;;;;;;;;;5089681;28;1478;-72
2022/02/23 01:48:16;;;;;;;;;;;;;;;;;;5093197;28;920;-72
2022/02/23 01:50:42;;;;;;;;;;;;;;;;;;5092670;28;1157;-72
2022/02/23 01:53:09;;;;;;;;;;;;;;;;;;5092905;28;841;-72
2022/02/23 01:55:35;;;;;;;;;;;;;;;;;;5092441;28;1407;-72
2022/02/23 01:58:02;;;;;;;;;;;;;;;;;;5075058;28;1263;-72
2022/02/23 02:00:28;;;;;;;;;;;;;;;;;;5073909;28;1918;-72
2022/02/23 02:02:56;;;;;;;;;;;;;;;;;;5092903;28;956;-72
2022/02/23 02:05:22;;;;;;;;;;;;;;;;;;5092555;28;1301;-72
2022/02/23 02:07:48;;;;;;;;;;;;;;;;;;5092391;28;1119;-72
2022/02/23 02:10:15;;;;;;;;;;;;;;;;;;5092263;28;1019;-72
2022/02/23 02:12:41;;;;;;;;;;;;;;;;;;5092318;28;1074;-72
2022/02/23 02:15:08;;;;;;;;;;;;;;;;;;5092715;28;1307;-72
2022/02/23 02:17:36;;;;;;;;;;;;;;;;;;5092317;28;1153;-72
2022/02/23 02:20:03;;;;;;;;;;;;;;;;;;5092058;28;1918;-72
2022/02/23 02:22:31;;;;;;;;;;;;;;;;;;5092113;28;842;-72
2022/02/23 02:24:58;;;;;;;;;;;;;;;;;;5091945;28;1309;-72
2022/02/23 02:27:24;;;;;;;;;;;;;;;;;;5092246;28;1038;-72
2022/02/23 02:29:50;;;;;;;;;;;;;;;;;;5091980;28;1281;-72
2022/02/23 02:32:17;;;;;;;;;;;;;;;;;;5092125;28;873;-72
2022/02/23 02:34:43;;;;;;;;;;;;;;;;;;5091901;28;1332;-72
2022/02/23 02:37:09;;;;;;;;;;;;;;;;;;5091799;28;995;-72
2022/02/23 02:39:37;;;;;;;;;;;;;;;;;;5091546;28;1918;-72
2022/02/23 02:42:03;;;;;;;;;;;;;;;;;;5092102;28;829;-72
2022/02/23 02:44:30;;;;;;;;;;;;;;;;;;5091831;28;1300;-72
2022/02/23 02:46:56;;;;;;;;;;;;;;;;;;5091288;28;1144;-72
2022/02/23 02:49:22;;;;;;;;;;;;;;;;;;5073572;28;1132;-72
2022/02/23 02:51:48;;;;;;;;;;;;;;;;;;5091426;28;865;-72
2022/02/23 02:54:15;;;;;;;;;;;;;;;;;;5091683;28;1328;-72
2022/02/23 02:56:42;;;;;;;;;;;;;;;;;;5092971;28;1016;-72
2022/02/23 02:59:08;;;;;;;;;;;;;;;;;;5074420;28;1971;-72
2022/02/23 03:01:35;;;;;;;;;;;;;;;;;;5092290;28;1094;-72
2022/02/23 03:04:01;;;;;;;;;;;;;;;;;;5091783;28;1412;-72
2022/02/23 03:06:28;;;;;;;;;;;;;;;;;;5091907;28;1090;-72
2022/02/23 03:08:54;;;;;;;;;;;;;;;;;;5091621;28;1008;-72
2022/02/23 03:11:20;;;;;;;;;;;;;;;;;;5091326;28;1078;-72
2022/02/23 03:13:48;;;;;;;;;;;;;;;;;;5091471;28;1368;-71
2022/02/23 03:16:14;;;;;;;;;;;;;;;;;;5091555;28;801;-72
2022/02/23 03:18:41;;;;;;;;;;;;;;;;;;5091509;28;792;-72
2022/02/23 03:21:07;;;;;;;;;;;;;;;;;;5090983;28;1918;-72
2022/02/23 03:23:33;;;;;;;;;;;;;;;;;;5091149;28;1394;-72
2022/02/23 03:26:00;;;;;;;;;;;;;;;;;;5091139;28;1325;-72
2022/02/23 03:28:26;;;;;;;;;;;;;;;;;;5091190;28;801;-72
2022/02/23 03:30:54;;;;;;;;;;;;;;;;;;5090511;28;1102;-71
2022/02/23 03:33:21;;;;;;;;;;;;;;;;;;5090818;28;1315;-72
2022/02/23 03:35:47;;;;;;;;;;;;;;;;;;5091131;28;1310;-72
2022/02/23 03:38:13;;;;;;;;;;;;;;;;;;5091425;28;824;-72
2022/02/23 03:40:40;;;;;;;;;;;;;;;;;;5090661;28;1920;-72
2022/02/23 03:43:06;;;;;;;;;;;;;;;;;;5072685;28;1175;-72
2022/02/23 03:45:33;;;;;;;;;;;;;;;;;;5087513;28;1490;-72
2022/02/23 03:48:00;;;;;;;;;;;;;;;;;;5090930;28;1078;-72
2022/02/23 03:50:27;;;;;;;;;;;;;;;;;;5090519;28;1122;-72
2022/02/23 03:52:53;;;;;;;;;;;;;;;;;;5090681;28;1122;-72
2022/02/23 03:55:19;;;;;;;;;;;;;;;;;;5090409;28;1392;-72
2022/02/23 03:57:46;;;;;;;;;;;;;;;;;;5090740;28;1142;-72
2022/02/23 04:00:13;;;;;;;;;;;;;;;;;;5090008;28;1967;-72
2022/02/23 04:02:39;;;;;;;;;;;;;;;;;;5069968;28;2056;-72
2022/02/23 04:05:07;;;;;;;;;;;;;;;;;;5067943;28;1385;-72
2022/02/23 04:07:33;;;;;;;;;;;;;;;;;;5051988;28;1308;-72
2022/02/23 04:10:00;;;;;;;;;;;;;;;;;;5051861;28;1539;-72
2022/02/23 04:12:26;;;;;;;;;;;;;;;;;;5070675;28;797;-73
2022/02/23 04:14:52;;;;;;;;;;;;;;;;;;5052202;28;2370;-72
2022/02/23 04:17:18;;;;;;;;;;;;;;;;;;5070272;28;1138;-74
2022/02/23 04:19:45;;;;;;;;;;;;;;;;;;5070056;28;1914;-72
2022/02/23 04:22:12;;;;;;;;;;;;;;;;;;5070180;28;805;-72
2022/02/23 04:24:38;;;;;;;;;;;;;;;;;;5052188;28;1404;-72
2022/02/23 04:27:05;;;;;;;;;;;;;;;;;;5069778;28;1086;-73
2022/02/23 04:29:31;;;;;;;;;;;;;;;;;;5069978;28;960;-72
2022/02/23 04:31:58;;;;;;;;;;;;;;;;;;5070206;28;972;-72
2022/02/23 04:34:24;;;;;;;;;;;;;;;;;;5070014;28;1302;-72
2022/02/23 04:36:50;;;;;;;;;;;;;;;;;;5052154;28;1096;-72
2022/02/23 04:39:18;;;;;;;;;;;;;;;;;;5069861;28;1968;-73
2022/02/23 04:41:44;;;;;;;;;;;;;;;;;;5051728;28;1114;-73
2022/02/23 04:44:10;;;;;;;;;;;;;;;;;;5069835;28;1328;-72
2022/02/23 04:46:37;;;;;;;;;;;;;;;;;;5070103;28;1149;-72
2022/02/23 04:49:03;;;;;;;;;;;;;;;;;;5069861;28;1083;-72
2022/02/23 04:51:30;;;;;;;;;;;;;;;;;;5069578;28;1083;-72
2022/02/23 04:53:56;;;;;;;;;;;;;;;;;;5069975;28;1347;-72
2022/02/23 04:56:25;;;;;;;;;;;;;;;;;;5069952;28;845;-71
2022/02/23 04:58:51;;;;;;;;;;;;;;;;;;5069993;28;735;-72
2022/02/23 05:01:18;;;;;;;;;;;;;;;;;;5069047;28;1914;-71
2022/02/23 05:03:44;;;;;;;;;;;;;;;;;;5070031;28;1043;-72
2022/02/23 05:06:10;;;;;;;;;;;;;;;;;;5070059;28;1353;-74
2022/02/23 05:08:37;;;;;;;;;;;;;;;;;;5070569;28;1019;-72
2022/02/23 05:11:03;;;;;;;;;;;;;;;;;;5073155;28;1086;-72
2022/02/23 05:13:32;;;;;;;;;;;;;;;;;;5055672;28;917;-73
2022/02/23 05:16:00;;;;;;;;;;;;;;;;;;5055423;28;1367;-73
2022/02/23 05:18:27;;;;;;;;;;;;;;;;;;5070673;28;1445;-72
2022/02/23 05:20:53;;;;;;;;;;;;;;;;;;5072540;28;1906;-73
2022/02/23 05:23:19;;;;;;;;;;;;;;;;;;5073256;28;979;-72
2022/02/23 05:25:45;;;;;;;;;;;;;;;;;;5072022;28;1584;-73
2022/02/23 05:28:11;;;;;;;;;;;;;;;;;;5052622;28;1498;-73
2022/02/23 05:30:39;;;;;;;;;;;;;;;;;;5053009;28;1414;-73
2022/02/23 05:33:05;;;;;;;;;;;;;;;;;;5052702;28;1517;-73
2022/02/23 05:35:31;;;;;;;;;;;;;;;;;;5051343;28;1545;-72
2022/02/23 05:37:58;;;;;;;;;;;;;;;;;;5052929;28;905;-73
2022/02/23 05:40:24;;;;;;;;;;;;;;;;;;5044524;28;1914;-74
2022/02/23 05:42:50;;;;;;;;;;;;;;;;;;5034809;28;1262;-74
2022/02/23 05:45:16;;;;;;;;;;;;;;;;;;5052342;28;1664;-74
2022/02/23 05:47:44;;;;;;;;;;;;;;;;;;5052567;28;1450;-73
2022/02/23 05:50:10;;;;;;;;;;;;;;;;;;5062913;28;1608;-72
2022/02/23 05:52:36;;;;;;;;;;;;;;;;;;5055579;28;1589;-73
2022/02/23 05:55:03;;;;;;;;;;;;;;;;;;5052054;28;1271;-73
2022/02/23 05:57:30;;;;;;;;;;;;;;;;;;5052463;28;825;-71
2022/02/23 05:59:56;;;;;;;;;;;;;;;;;;5052407;28;1981;-71
2022/02/23 06:02:22;;;;;;;;;;;;;;;;;;5052444;28;794;-72
2022/02/23 06:04:49;;;;;;;;;;;;;;;;;;5052363;28;1332;-70
2022/02/23 06:07:16;;;;;;;;;;;;;;;;;;5060590;28;1144;-71
2022/02/23 06:09:42;;;;;;;;;;;;;;;;;;5072057;28;1317;-71
2022/02/23 06:12:09;;;;;;;;;;;;;;;;;;5072341;28;781;-72
2022/02/23 06:14:35;;;;;;;;;;;;;;;;;;5072070;28;1323;-72
2022/02/23 06:17:01;;;;;;;;;;;;;;;;;;5054439;28;1059;-72
2022/02/23 06:19:27;;;;;;;;;;;;;;;;;;5072561;28;948;-72
2022/02/23 06:21:55;;;;;;;;;;;;;;;;;;5071258;28;1910;-71
2022/02/23 06:24:21;;;;;;;;;;;;;;;;;;5072020;28;1251;-70
2022/02/23 06:26:47;;;;;;;;;;;;;;;;;;5072141;28;1066;-73
2022/02/23 06:29:14;;;;;;;;;;;;;;;;;;5072052;28;1074;-73
2022/02/23 06:31:40;;;;;;;;;;;;;;;;;;5071583;28;1122;-74
2022/02/23 06:34:06;;;;;;;;;;;;;;;;;;5071812;28;1381;-72
2022/02/23 06:36:33;;;;;;;;;;;;;;;;;;5071981;28;833;-72
2022/02/23 06:39:00;;;;;;;;;;;;;;;;;;5071841;28;1086;-72
2022/02/23 06:41:26;;;;;;;;;;;;;;;;;;5071232;28;1986;-71
2022/02/23 06:43:53;;;;;;;;;;;;;;;;;;5071334;28;1393;-69
2022/02/23 06:46:19;;;;;;;;;;;;;;;;;;5053612;28;1364;-69
2022/02/23 06:48:46;;;;;;;;;;;;;;;;;;5071668;28;1063;-70
2022/02/23 06:51:18;;;;;;;;;;;;;;;;;;5052950;28;1141;-73
2022/02/23 06:53:44;;;;;;;;;;;;;;;;;;5071493;28;587;-71
2022/02/23 06:56:12;;;;;;;;;;;;;;;;;;5062837;28;1786;-72
2022/02/23 06:58:44;;;;;;;;;;;;;;;;;;5063470;28;1158;-71
2022/02/23 07:01:10;;;;;;;;;;;;;;;;;;5071163;28;1918;-71
2022/02/23 07:03:36;;;;;;;;;;;;;;;;;;5071710;28;1091;-72
2022/02/23 07:06:02;;;;;;;;;;;;;;;;;;5071423;28;1316;-72
2022/02/23 07:08:29;;;;;;;;;;;;;;;;;;5071636;28;810;-72
2022/02/23 07:10:55;;;;;;;;;;;;;;;;;;5071050;28;1040;-73
2022/02/23 07:13:22;;;;;;;;;;;;;;;;;;5053447;28;808;-72
2022/02/23 07:15:49;;;;;;;;;;;;;;;;;;5071626;28;1324;-72
2022/02/23 07:18:15;;;;;;;;;;;;;;;;;;5071150;28;948;-73
2022/02/23 07:20:41;;;;;;;;;;;;;;;;;;5070975;28;1971;-73
2022/02/23 07:23:08;;;;;;;;;;;;;;;;;;5053170;28;1115;-73
2022/02/23 07:25:34;;;;;;;;;;;;;;;;;;5053311;28;1381;-73
2022/02/23 07:28:00;;;;;;;;;;;;;;;;;;5071046;28;1154;-72
2022/02/23 07:30:28;;;;;;;;;;;;;;;;;;5052754;28;1317;-72
2022/02/23 07:32:54;;;;;;;;;;;;;;;;;;5053243;28;973;-71
2022/02/23 07:35:20;;;;;;;;;;;;;;;;;;5071181;28;1304;-72
2022/02/23 07:37:48;;;;;;;;;;;;;;;;;;5071177;28;1000;-72
2022/02/23 07:40:16;;;;;;;;;;;;;;;;;;5070583;28;1963;-72
2022/02/23 07:42:43;;;;;;;;;;;;;;;;;;5071099;28;1131;-72
2022/02/23 07:45:10;;;;;;;;;;;;;;;;;;5070498;28;1400;-72
2022/02/23 07:47:37;;;;;;;;;;;;;;;;;;5071473;28;1486;-72
2022/02/23 07:50:05;;;;;;;;;;;;;;;;;;5072740;28;1518;-72
2022/02/23 07:52:32;;;;;;;;;;;;;;;;;;5070902;28;798;-72
2022/02/23 07:54:58;;;;;;;;;;;;;;;;;;5070623;28;1303;-71
2022/02/23 07:57:24;;;;;;;;;;;;;;;;;;5071060;28;1126;-72
2022/02/23 07:59:50;;;;;;;;;;;;;;;;;;5070863;28;1083;-72
2022/02/23 08:02:17;;;;;;;;;;;;;;;;;;5070383;28;1914;-72
2022/02/23 08:04:50;;;;;;;;;;;;;;;;;;5052902;28;1328;-72
2022/02/23 08:07:16;;;;;;;;;;;;;;;;;;5071327;28;983;-71
2022/02/23 08:09:42;;;;;;;;;;;;;;;;;;5052760;28;1172;-72
2022/02/23 08:12:11;;;;;;;;;;;;;;;;;;5052700;28;1542;-72
2022/02/23 08:14:39;;;;;;;;;;;;;;;;;;5052808;28;1333;-72
2022/02/23 08:19:51;;;;;;;;;;;;;;;;;;5052546;28;897;-73
2022/02/23 08:22:17;;;;;;;;;;;;;;;;;;5052770;28;1981;-72
2022/02/23 08:24:44;;;;;;;;;;;;;;;;;;5070842;28;1324;-72
2022/02/23 08:27:11;;;;;;;;;;;;;;;;;;5070913;28;853;-73
2022/02/23 08:29:38;;;;;;;;;;;;;;;;;;5070468;28;1071;-72
2022/02/23 08:32:05;;;;;;;;;;;;;;;;;;5070774;28;1110;-72
2022/02/23 08:34:31;;;;;;;;;;;;;;;;;;5052544;28;1414;-73
2022/02/23 08:36:59;;;;;;;;;;;;;;;;;;5052547;28;1256;-72
2022/02/23 08:39:25;;;;;;;;;;;;;;;;;;5070851;28;1139;-73
2022/02/23 08:41:51;;;;;;;;;;;;;;;;;;5070371;28;1972;-72
2022/02/23 08:44:17;;;;;;;;;;;;;;;;;;5072280;28;1404;-72
2022/02/23 08:46:44;;;;;;;;;;;;;;;;;;5056285;28;1115;-73
2022/02/23 08:49:11;;;;;;;;;;;;;;;;;;5074211;28;799;-73
2022/02/23 08:51:38;;;;;;;;;;;;;;;;;;5074066;28;1066;-72
2022/02/23 08:54:06;;;;;;;;;;;;;;;;;;5073799;28;1329;-73
2022/02/23 08:56:32;;;;;;;;;;;;;;;;;;5073987;28;1247;-72
2022/02/23 08:58:58;;;;;;;;;;;;;;;;;;5074053;28;833;-72
2022/02/23 09:01:25;;;;;;;;;;;;;;;;;;5055543;28;1923;-72
2022/02/23 09:03:52;;;;;;;;;;;;;;;;;;5073984;28;1395;-72
2022/02/23 09:06:18;;;;;;;;;;;;;;;;;;5073917;28;1074;-72
2022/02/23 09:08:44;;;;;;;;;;;;;;;;;;5073999;28;1012;-72
2022/02/23 09:11:13;;;;;;;;;;;;;;;;;;5073736;28;1075;-71
2022/02/23 09:13:39;;;;;;;;;;;;;;;;;;5073522;28;968;-73
2022/02/23 09:16:05;;;;;;;;;;;;;;;;;;5073742;28;1398;-73
2022/02/23 09:18:31;;;;;;;;;;;;;;;;;;5073926;28;782;-73
2022/02/23 09:20:58;;;;;;;;;;;;;;;;;;5073501;28;1974;-73
2022/02/23 09:23:25;;;;;;;;;;;;;;;;;;5073713;28;1050;-72
2022/02/23 09:25:51;;;;;;;;;;;;;;;;;;5055841;28;1413;-72
2022/02/23 09:28:18;;;;;;;;;;;;;;;;;;5073563;28;1012;-72
2022/02/23 09:30:45;;;;;;;;;;;;;;;;;;5073474;28;828;-72
2022/02/23 09:33:11;;;;;;;;;;;;;;;;;;5073218;28;941;-73
2022/02/23 09:35:39;;;;;;;;;;;;;;;;;;5073547;28;1296;-72
2022/02/23 09:38:05;;;;;;;;;;;;;;;;;;5073481;28;786;-72
2022/02/23 09:40:31;;;;;;;;;;;;;;;;;;5073009;28;1251;-73
2022/02/23 09:42:57;;;;;;;;;;;;;;;;;;5073360;28;1971;-73
2022/02/23 09:45:25;;;;;;;;;;;;;;;;;;5054911;28;1326;-72
2022/02/23 09:47:51;;;;;;;;;;;;;;;;;;5073526;28;1142;-72
2022/02/23 09:50:20;;;;;;;;;;;;;;;;;;5072689;28;1003;-72
2022/02/23 09:52:46;;;;;;;;;;;;;;;;;;5073094;28;1127;-72
2022/02/23 09:55:13;;;;;;;;;;;;;;;;;;5074349;28;1752;-72
2022/02/23 09:57:40;;;;;;;;;;;;;;;;;;5074571;28;801;-73
2022/02/23 10:00:06;;;;;;;;;;;;;;;;;;5072671;28;868;-72
2022/02/23 10:02:34;;;;;;;;;;;;;;;;;;5070993;28;2077;-71
2022/02/23 10:05:01;;;;;;;;;;;;;;;;;;5065708;28;1777;-73
2022/02/23 10:07:28;;;;;;;;;;;;;;;;;;5072289;28;1129;-72
2022/02/23 10:09:57;;;;;;;;;;;;;;;;;;5072668;28;984;-72
2022/02/23 10:12:26;;;;;;;;;;;;;;;;;;5073204;28;1137;-72
2022/02/23 10:14:53;;;;;;;;;;;;;;;;;;5072863;28;1316;-72
2022/02/23 10:17:20;;;;;;;;;;;;;;;;;;5072877;28;1086;-73
2022/02/23 10:19:51;;;;;;;;;;;;;;;;;;5071683;28;1318;-72
2022/02/23 10:22:21;;;;;;;;;;;;;;;;;;5072348;28;1917;-72
2022/02/23 10:24:47;;;;;;;;;;;;;;;;;;5072227;28;1405;-72
2022/02/23 10:27:14;;;;;;;;;;;;;;;;;;5072810;28;983;-72
2022/02/23 10:29:46;;;;;;;;;;;;;;;;;;5054422;28;1120;-71
2022/02/23 10:32:13;;;;;;;;;;;;;;;;;;5072436;28;924;-72
2022/02/23 10:34:41;;;;;;;;;;;;;;;;;;5054290;28;1392;-72
2022/02/23 10:37:09;;;;;;;;;;;;;;;;;;5072289;28;933;-72
2022/02/23 10:39:36;;;;;;;;;;;;;;;;;;5071935;28;1074;-72
2022/02/23 10:42:05;;;;;;;;;;;;;;;;;;5071894;28;1910;-72
2022/02/23 10:44:32;;;;;;;;;;;;;;;;;;5071938;28;1397;-71
2022/02/23 10:46:59;;;;;;;;;;;;;;;;;;5072298;28;1087;-72
2022/02/23 10:49:25;;;;;;;;;;;;;;;;;;5054152;28;1120;-72
2022/02/23 10:51:53;;;;;;;;;;;;;;;;;;5053949;28;904;-72
2022/02/23 10:54:21;;;;;;;;;;;;;;;;;;5071642;28;1291;-72
2022/02/23 10:56:47;;;;;;;;;;;;;;;;;;5054143;28;1176;-70
2022/02/23 10:59:15;;;;;;;;;;;;;;;;;;5071917;28;1145;-72
2022/02/23 11:01:42;;;;;;;;;;;;;;;;;;5071373;28;1934;-72
2022/02/23 11:04:08;;;;;;;;;;;;;;;;;;5071879;28;1326;-72
2022/02/23 11:06:35;;;;;;;;;;;;;;;;;;5071644;28;854;-72
2022/02/23 11:09:01;;;;;;;;;;;;;;;;;;5054093;28;1234;-73
2022/02/23 11:11:29;;;;;;;;;;;;;;;;;;5071176;28;798;-72
2022/02/23 11:13:57;;;;;;;;;;;;;;;;;;5071571;28;1318;-73
2022/02/23 11:16:24;;;;;;;;;;;;;;;;;;5071500;28;1078;-72
2022/02/23 11:18:50;;;;;;;;;;;;;;;;;;5053220;28;1123;-73
2022/02/23 11:21:17;;;;;;;;;;;;;;;;;;5071058;28;928;-73
2022/02/23 11:23:44;;;;;;;;;;;;;;;;;;5071679;28;1918;-73
2022/02/23 11:26:14;;;;;;;;;;;;;;;;;;5053365;28;1341;-73
2022/02/23 11:28:43;;;;;;;;;;;;;;;;;;5071298;28;797;-72
2022/02/23 11:31:11;;;;;;;;;;;;;;;;;;5071473;28;885;-70
2022/02/23 11:33:53;;;;;;;;;;;;;;;;;;5071281;28;937;-72
2022/02/23 11:36:20;;;;;;;;;;;;;;;;;;5070868;28;1082;-72
2022/02/23 11:38:46;;;;;;;;;;;;;;;;;;5071171;28;1067;-73
2022/02/23 11:41:21;;;;;;;;;;;;;;;;;;5070966;28;1090;-73
2022/02/23 11:43:49;;;;;;;;;;;;;;;;;;5070751;28;1910;-72
2022/02/23 11:46:15;;;;;;;;;;;;;;;;;;5071177;28;1129;-73
2022/02/23 11:48:47;;;;;;;;;;;;;;;;;;5071094;28;975;-73
2022/02/23 11:51:22;;;;;;;;;;;;;;;;;;5070793;28;1067;-73
2022/02/23 11:53:49;;;;;;;;;;;;;;;;;;5070815;28;936;-72
2022/02/23 11:56:16;;;;;;;;;;;;;;;;;;5070586;28;1404;-72
2022/02/23 11:58:42;;;;;;;;;;;;;;;;;;5070900;28;1118;-72
2022/02/23 12:01:10;;;;;;;;;;;;;;;;;;5070717;28;945;-72
2022/02/23 12:03:36;;;;;;;;;;;;;;;;;;5070660;28;1918;-72
2022/02/23 12:06:05;;;;;;;;;;;;;;;;;;5073184;28;1553;-72
2022/02/23 12:08:42;;;;;;;;;;;;;;;;;;5070959;28;1137;-73
2022/02/23 12:11:27;;;;;;;;;;;;;;;;;;5070743;28;1129;-72
2022/02/23 12:13:55;;;;;;;;;;;;;;;;;;5070627;28;1417;-72
2022/02/23 12:16:23;;;;;;;;;;;;;;;;;;5070900;28;988;-73
2022/02/23 12:18:50;;;;;;;;;;;;;;;;;;5071915;28;1101;-73
2022/02/23 12:21:17;;;;;;;;;;;;;;;;;;5074654;28;1142;-72
2022/02/23 12:23:44;;;;;;;;;;;;;;;;;;5056988;28;1981;-72
2022/02/23 12:26:14;;;;;;;;;;;;;;;;;;5075153;28;1308;-73
2022/02/23 12:28:40;;;;;;;;;;;;;;;;;;5075502;28;1079;-73
2022/02/23 12:31:07;;;;;;;;;;;;;;;;;;5074331;28;1129;-73
2022/02/23 12:33:35;;;;;;;;;;;;;;;;;;5074725;28;790;-73
2022/02/23 12:36:03;;;;;;;;;;;;;;;;;;5074757;28;1310;-74
2022/02/23 12:38:31;;;;;;;;;;;;;;;;;;5074600;28;1123;-73
2022/02/23 12:40:57;;;;;;;;;;;;;;;;;;5074180;28;861;-73
2022/02/23 12:43:23;;;;;;;;;;;;;;;;;;5074552;28;1891;-73
2022/02/23 12:45:50;;;;;;;;;;;;;;;;;;5074449;28;1320;-73
2022/02/23 12:48:16;;;;;;;;;;;;;;;;;;5074403;28;972;-73
2022/02/23 12:50:44;;;;;;;;;;;;;;;;;;5056161;28;1202;-73
2022/02/23 12:53:10;;;;;;;;;;;;;;;;;;5074360;28;948;-73
2022/02/23 12:55:36;;;;;;;;;;;;;;;;;;5073267;28;1634;-73
2022/02/23 12:58:05;;;;;;;;;;;;;;;;;;5074273;28;1097;-73
2022/02/23 13:00:31;;;;;;;;;;;;;;;;;;5073851;28;1157;-73
2022/02/23 13:03:05;;;;;;;;;;;;;;;;;;5056169;28;1918;-73
2022/02/23 13:05:31;;;;;;;;;;;;;;;;;;5073788;28;1410;-74
2022/02/23 13:07:59;;;;;;;;;;;;;;;;;;5073930;28;889;-74
2022/02/23 13:10:25;;;;;;;;;;;;;;;;;;5073705;28;1074;-72
2022/02/23 13:12:52;;;;;;;;;;;;;;;;;;5074046;28;813;-74
2022/02/23 13:15:19;;;;;;;;;;;;;;;;;;5073849;28;1338;-73
2022/02/23 13:17:45;;;;;;;;;;;;;;;;;;5073861;28;1134;-74
2022/02/23 13:20:11;;;;;;;;;;;;;;;;;;5073563;28;979;-73
2022/02/23 13:22:39;;;;;;;;;;;;;;;;;;5073779;28;1977;-73
2022/02/23 13:25:07;;;;;;;;;;;;;;;;;;5073352;28;1295;-73
2022/02/23 13:27:34;;;;;;;;;;;;;;;;;;5056001;28;1248;-72
2022/02/23 13:30:01;;;;;;;;;;;;;;;;;;5073392;28;1087;-73
2022/02/23 13:32:30;;;;;;;;;;;;;;;;;;5073942;28;1067;-73
2022/02/23 13:34:57;;;;;;;;;;;;;;;;;;5073543;28;1426;-73
2022/02/23 13:37:25;;;;;;;;;;;;;;;;;;5073553;28;1011;-72
2022/02/23 13:39:52;;;;;;;;;;;;;;;;;;5073230;28;828;-73
2022/02/23 13:42:30;;;;;;;;;;;;;;;;;;5055261;28;1925;-73
2022/02/23 13:44:57;;;;;;;;;;;;;;;;;;5073233;28;1313;-73
2022/02/23 13:47:26;;;;;;;;;;;;;;;;;;5073455;28;1070;-72
2022/02/23 13:50:02;;;;;;;;;;;;;;;;;;5073318;28;1075;-73
2022/02/23 13:52:29;;;;;;;;;;;;;;;;;;5073236;28;1099;-73
2022/02/23 13:55:00;;;;;;;;;;;;;;;;;;5073115;28;1385;-73
2022/02/23 13:57:27;;;;;;;;;;;;;;;;;;5075608;28;1479;-73
2022/02/23 14:00:00;;;;;;;;;;;;;;;;;;5072745;28;809;-73
2022/02/23 14:02:28;;;;;;;;;;;;;;;;;;5072945;28;1918;-73
2022/02/23 14:05:03;;;;;;;;;;;;;;;;;;5072865;28;1300;-73
2022/02/23 14:07:29;;;;;;;;;;;;;;;;;;5054791;28;1230;-71
2022/02/23 14:09:56;;;;;;;;;;;;;;;;;;5072460;28;802;-73
2022/02/23 14:12:23;;;;;;;;;;;;;;;;;;5072916;28;903;-73
2022/02/23 14:14:51;;;;;;;;;;;;;;;;;;5072413;28;1361;-73
2022/02/23 14:17:20;;;;;;;;;;;;;;;;;;5072568;28;1011;-72
2022/02/23 14:19:46;;;;;;;;;;;;;;;;;;5054466;28;1130;-72
2022/02/23 14:22:16;;;;;;;;;;;;;;;;;;5072728;28;992;-72
2022/02/23 14:24:42;;;;;;;;;;;;;;;;;;5072011;28;1980;-74
2022/02/23 14:27:10;;;;;;;;;;;;;;;;;;5072900;28;897;-72
2022/02/23 14:29:37;;;;;;;;;;;;;;;;;;5072307;28;1075;-73
2022/02/23 14:32:17;;;;;;;;;;;;;;;;;;5072861;28;735;-73
2022/02/23 14:34:48;;;;;;;;;;;;;;;;;;5072349;28;1314;-74
2022/02/23 14:37:15;;;;;;;;;;;;;;;;;;5072314;28;940;-73
2022/02/23 14:39:41;;;;;;;;;;;;;;;;;;5072105;28;1066;-74
2022/02/23 14:42:08;;;;;;;;;;;;;;;;;;5071754;28;1059;-72
2022/02/23 14:44:34;;;;;;;;;;;;;;;;;;5072153;28;1922;-73
2022/02/23 14:47:00;;;;;;;;;;;;;;;;;;5072446;28;769;-72
2022/02/23 14:49:28;;;;;;;;;;;;;;;;;;5072052;28;1138;-72
2022/02/23 14:51:54;;;;;;;;;;;;;;;;;;5071563;28;1083;-72
2022/02/23 14:54:20;;;;;;;;;;;;;;;;;;5053817;28;1313;-72
2022/02/23 14:56:46;;;;;;;;;;;;;;;;;;5071846;28;980;-73
2022/02/23 14:59:12;;;;;;;;;;;;;;;;;;5071696;28;896;-72
2022/02/23 15:01:39;;;;;;;;;;;;;;;;;;5071511;28;694;-72
2022/02/23 15:04:05;;;;;;;;;;;;;;;;;;5071760;28;1981;-72
2022/02/23 15:06:33;;;;;;;;;;;;;;;;;;5071600;28;1131;-73
2022/02/23 15:08:59;;;;;;;;;;;;;;;;;;5071373;28;965;-72
2022/02/23 15:11:25;;;;;;;;;;;;;;;;;;5071539;28;971;-72
2022/02/23 15:13:51;;;;;;;;;;;;;;;;;;5071581;28;1316;-70
2022/02/23 15:16:18;;;;;;;;;;;;;;;;;;5071491;28;1146;-73
2022/02/23 15:18:44;;;;;;;;;;;;;;;;;;5071289;28;964;-71
2022/02/23 15:21:10;;;;;;;;;;;;;;;;;;5073352;28;1050;-71
2022/02/23 15:23:38;;;;;;;;;;;;;;;;;;5072062;28;1965;-72
2022/02/23 15:26:04;;;;;;;;;;;;;;;;;;5071354;28;1316;-72
2022/02/23 15:28:30;;;;;;;;;;;;;;;;;;5071174;28;877;-72
2022/02/23 15:30:56;;;;;;;;;;;;;;;;;;5053003;28;1277;-72
2022/02/23 15:33:22;;;;;;;;;;;;;;;;;;5071460;28;963;-73
2022/02/23 15:35:49;;;;;;;;;;;;;;;;;;5071522;28;1277;-72
2022/02/23 15:38:15;;;;;;;;;;;;;;;;;;5071075;28;1200;-72
2022/02/23 15:40:43;;;;;;;;;;;;;;;;;;5070740;28;987;-72
2022/02/23 15:43:10;;;;;;;;;;;;;;;;;;5070936;28;1983;-72
2022/02/23 15:45:37;;;;;;;;;;;;;;;;;;5070710;28;1307;-72
2022/02/23 15:48:03;;;;;;;;;;;;;;;;;;5053075;28;1321;-72
2022/02/23 15:50:33;;;;;;;;;;;;;;;;;;5073138;28;1439;-73
2022/02/23 15:52:59;;;;;;;;;;;;;;;;;;5052181;28;1270;-73
2022/02/23 15:55:25;;;;;;;;;;;;;;;;;;5070534;28;1236;-73
2022/02/23 15:57:53;;;;;;;;;;;;;;;;;;5070797;28;954;-72
2022/02/23 16:00:19;;;;;;;;;;;;;;;;;;5071799;28;975;-73
2022/02/23 16:02:46;;;;;;;;;;;;;;;;;;5070506;28;1123;-72
2022/02/23 16:05:12;;;;;;;;;;;;;;;;;;5068422;28;2014;-73
2022/02/23 16:07:38;;;;;;;;;;;;;;;;;;5061874;28;1256;-73
2022/02/23 16:10:05;;;;;;;;;;;;;;;;;;5069873;28;1161;-73
2022/02/23 16:12:31;;;;;;;;;;;;;;;;;;5070919;28;1020;-73
2022/02/23 16:14:58;;;;;;;;;;;;;;;;;;5070999;28;1306;-73
2022/02/23 16:17:25;;;;;;;;;;;;;;;;;;5070928;28;1070;-74
2022/02/23 16:19:51;;;;;;;;;;;;;;;;;;5070616;28;1074;-74
2022/02/23 16:22:19;;;;;;;;;;;;;;;;;;5070782;28;1075;-74
2022/02/23 16:24:45;;;;;;;;;;;;;;;;;;5071063;28;1927;-74
2022/02/23 16:27:11;;;;;;;;;;;;;;;;;;5070510;28;826;-74
2022/02/23 16:29:38;;;;;;;;;;;;;;;;;;5070190;28;1146;-73
2022/02/23 16:32:06;;;;;;;;;;;;;;;;;;5052809;28;1358;-73
2022/02/23 16:34:33;;;;;;;;;;;;;;;;;;5070660;28;1282;-74
2022/02/23 16:36:59;;;;;;;;;;;;;;;;;;5052380;28;1483;-73
2022/02/23 16:39:25;;;;;;;;;;;;;;;;;;5070431;28;1141;-73
2022/02/23 16:41:51;;;;;;;;;;;;;;;;;;5070275;28;798;-74
2022/02/23 16:44:17;;;;;;;;;;;;;;;;;;5052128;28;1914;-74
2022/02/23 16:46:44;;;;;;;;;;;;;;;;;;5071822;28;1142;-74
2022/02/23 16:49:11;;;;;;;;;;;;;;;;;;5071888;28;1133;-74
2022/02/23 16:51:38;;;;;;;;;;;;;;;;;;5070395;28;1147;-72
2022/02/23 16:54:05;;;;;;;;;;;;;;;;;;5070102;28;1434;-73
2022/02/23 16:56:32;;;;;;;;;;;;;;;;;;5052545;28;1333;-73
2022/02/23 16:58:58;;;;;;;;;;;;;;;;;;5070460;28;1083;-74
2022/02/23 17:01:24;;;;;;;;;;;;;;;;;;5069924;28;1146;-74
2022/02/23 17:03:50;;;;;;;;;;;;;;;;;;5070331;28;1914;-74
2022/02/23 17:06:18;;;;;;;;;;;;;;;;;;5073581;28;992;-74
2022/02/23 17:08:44;;;;;;;;;;;;;;;;;;5074219;28;1067;-73